createdAt,value
2023-02-27T00:01:21.823Z,-2.80
2023-02-27T00:05:46.018Z,-2.90
2023-02-27T00:10:07.579Z,-2.90
2023-02-27T00:14:31.688Z,-2.90
2023-02-27T00:19:01.313Z,-3.00
2023-02-27T00:23:25.432Z,-3.00
2023-02-27T00:27:50.777Z,-3.00
2023-02-27T00:32:14.751Z,-3.00
2023-02-27T00:36:38.616Z,-3.00
2023-02-27T00:41:02.963Z,-3.10
2023-02-27T00:45:28.254Z,-3.10
2023-02-27T00:49:52.193Z,-3.10
2023-02-27T00:54:16.041Z,-3.20
2023-02-27T00:58:39.950Z,-3.30
2023-02-27T01:03:05.813Z,-3.30
2023-02-27T01:07:29.878Z,-3.30
2023-02-27T01:11:54.088Z,-3.30
2023-02-27T01:16:18.757Z,-3.40
2023-02-27T01:20:44.011Z,-3.40
2023-02-27T01:25:10.626Z,-3.40
2023-02-27T01:29:36.423Z,-3.30
2023-02-27T01:33:56.468Z,-3.20
2023-02-27T01:38:21.802Z,-3.10
2023-02-27T01:42:46.726Z,-2.90
2023-02-27T01:47:10.567Z,-2.70
2023-02-27T01:51:39.182Z,-2.50
2023-02-27T01:56:11.459Z,-2.40
2023-02-27T02:00:35.469Z,-2.20
2023-02-27T02:05:00.558Z,-2.00
2023-02-27T02:09:26.231Z,-1.90
2023-02-27T02:13:56.799Z,-1.80
2023-02-27T02:18:33.431Z,-1.70
2023-02-27T02:23:36.492Z,-1.60
2023-02-27T02:28:13.739Z,-1.50
2023-02-27T02:33:21.386Z,-1.30
2023-02-27T02:38:30.416Z,-1.30
2023-02-27T02:43:04.384Z,-1.20
2023-02-27T02:47:36.960Z,-1.10
2023-02-27T02:52:05.168Z,-1.10
2023-02-27T02:56:36.887Z,-1.00
2023-02-27T03:01:10.264Z,-1.00
2023-02-27T03:05:39.364Z,-1.00
2023-02-27T03:10:09.439Z,-0.90
2023-02-27T03:14:40.937Z,-0.90
2023-02-27T03:19:12.530Z,-0.80
2023-02-27T03:23:41.665Z,-0.80
2023-02-27T03:28:11.462Z,-0.70
2023-02-27T03:32:45.918Z,-0.80
2023-02-27T03:37:22.029Z,-0.70
2023-02-27T03:41:53.834Z,-0.70
2023-02-27T03:46:38.624Z,-0.70
2023-02-27T03:51:04.488Z,-0.60
2023-02-27T03:55:34.520Z,-0.60
2023-02-27T04:00:01.145Z,-0.60
2023-02-27T04:04:27.635Z,-0.60
2023-02-27T04:09:18.732Z,-0.60
2023-02-27T04:13:56.525Z,-0.50
2023-02-27T04:18:31.734Z,-0.50
2023-02-27T04:23:01.172Z,-0.50
2023-02-27T04:27:38.637Z,-0.50
2023-02-27T04:32:07.494Z,-0.40
2023-02-27T04:36:36.018Z,-0.40
2023-02-27T04:41:04.337Z,-0.40
2023-02-27T04:45:35.563Z,-0.40
2023-02-27T04:50:04.530Z,-0.40
2023-02-27T04:54:33.541Z,-0.30
2023-02-27T04:59:02.891Z,-0.30
2023-02-27T05:03:33.093Z,-0.30
2023-02-27T05:08:00.492Z,-0.30
2023-02-27T05:12:29.990Z,-0.30
2023-02-27T05:17:01.727Z,-0.20
2023-02-27T05:21:31.524Z,-0.20
2023-02-27T05:25:59.951Z,-0.30
2023-02-27T05:30:31.969Z,-0.30
2023-02-27T05:35:03.190Z,-0.40
2023-02-27T05:39:31.381Z,-0.60
2023-02-27T05:43:59.906Z,-0.70
2023-02-27T05:48:27.765Z,-0.80
2023-02-27T05:52:54.445Z,-0.90
2023-02-27T05:57:25.205Z,-1.00
2023-02-27T06:01:49.206Z,-1.00
2023-02-27T06:06:17.421Z,-1.10
2023-02-27T06:10:41.459Z,-1.10
2023-02-27T06:15:07.745Z,-1.10
2023-02-27T06:19:31.851Z,-1.10
2023-02-27T06:23:55.910Z,-1.10
2023-02-27T06:28:20.290Z,-1.10
2023-02-27T06:32:45.794Z,-1.10
2023-02-27T06:37:09.814Z,-1.00
2023-02-27T06:41:33.658Z,-1.00
2023-02-27T06:45:57.862Z,-0.80
2023-02-27T06:50:23.128Z,-0.70
2023-02-27T06:54:47.175Z,-0.60
2023-02-27T06:59:11.256Z,-0.50
2023-02-27T07:03:35.316Z,-0.40
2023-02-27T07:08:00.674Z,-0.30
2023-02-27T07:12:24.562Z,-0.20
2023-02-27T07:16:53.969Z,0.00
2023-02-27T07:21:17.985Z,0.00
2023-02-27T07:25:43.441Z,0.10
2023-02-27T07:30:08.708Z,0.30
2023-02-27T07:34:32.710Z,0.40
2023-02-27T07:38:58.079Z,0.50
2023-02-27T07:43:23.363Z,0.80
2023-02-27T07:47:47.340Z,1.30
2023-02-27T07:52:11.582Z,1.80
2023-02-27T07:56:35.833Z,2.30
2023-02-27T08:01:01.192Z,2.90
2023-02-27T08:05:25.237Z,3.50
2023-02-27T08:09:49.075Z,4.00
2023-02-27T08:14:13.025Z,4.20
2023-02-27T08:18:38.818Z,4.30
2023-02-27T08:23:02.648Z,4.30
2023-02-27T08:27:26.718Z,4.20
2023-02-27T08:31:51.182Z,4.10
2023-02-27T08:36:17.071Z,4.00
2023-02-27T08:40:36.462Z,3.90
2023-02-27T08:45:00.371Z,3.80
2023-02-27T08:49:25.402Z,3.70
2023-02-27T08:53:50.709Z,3.60
2023-02-27T08:58:16.968Z,3.50
2023-02-27T09:02:42.096Z,3.50
2023-02-27T09:07:06.116Z,3.50
2023-02-27T09:11:31.511Z,3.50
2023-02-27T09:15:55.610Z,3.60
2023-02-27T09:20:20.158Z,3.60
2023-02-27T09:24:44.376Z,3.60
2023-02-27T09:29:09.758Z,3.60
2023-02-27T09:33:34.051Z,3.60
2023-02-27T09:37:59.720Z,3.90
2023-02-27T09:42:26.635Z,4.30
2023-02-27T09:46:52.679Z,4.60
2023-02-27T09:51:17.637Z,4.80
2023-02-27T09:55:43.884Z,5.00
2023-02-27T10:00:18.761Z,5.10
2023-02-27T10:04:51.510Z,5.30
2023-02-27T10:09:34.711Z,5.40
2023-02-27T10:14:05.649Z,5.60
2023-02-27T10:18:32.775Z,5.80
2023-02-27T10:23:01.860Z,5.90
2023-02-27T10:27:25.712Z,5.90
2023-02-27T10:31:56.470Z,5.90
2023-02-27T10:36:32.892Z,5.90
2023-02-27T10:41:00.275Z,5.90
2023-02-27T10:45:24.594Z,5.70
2023-02-27T10:49:49.145Z,5.60
2023-02-27T10:54:23.607Z,5.30
2023-02-27T10:59:02.254Z,5.10
2023-02-27T11:03:31.112Z,5.00
2023-02-27T11:07:57.253Z,4.90
2023-02-27T11:12:27.677Z,4.90
2023-02-27T11:16:54.935Z,4.90
2023-02-27T11:21:24.104Z,4.90
2023-02-27T11:25:48.718Z,4.80
2023-02-27T11:30:24.934Z,4.80
2023-02-27T11:34:52.400Z,4.80
2023-02-27T11:39:26.379Z,4.90
2023-02-27T11:43:53.439Z,4.90
2023-02-27T11:48:14.167Z,5.00
2023-02-27T11:52:48.144Z,5.20
2023-02-27T11:57:22.152Z,5.80
2023-02-27T12:01:51.033Z,6.20
2023-02-27T12:06:20.400Z,6.40
2023-02-27T12:11:01.766Z,6.50
2023-02-27T12:15:38.244Z,6.70
2023-02-27T12:20:25.959Z,6.60
2023-02-27T12:24:54.069Z,6.60
2023-02-27T12:29:26.739Z,6.50
2023-02-27T12:33:57.286Z,6.20
2023-02-27T12:38:23.579Z,5.80
2023-02-27T12:43:03.624Z,5.60
2023-02-27T12:47:37.373Z,5.40
2023-02-27T12:52:12.769Z,5.20
2023-02-27T12:56:48.647Z,5.10
2023-02-27T13:01:26.002Z,5.10
2023-02-27T13:06:01.600Z,5.00
2023-02-27T13:10:32.810Z,5.00
2023-02-27T13:15:01.259Z,4.90
2023-02-27T13:19:30.086Z,4.80
2023-02-27T13:24:13.086Z,4.80
2023-02-27T13:28:37.180Z,4.70
2023-02-27T13:33:07.579Z,4.70
2023-02-27T13:37:53.560Z,4.90
2023-02-27T13:42:55.207Z,5.00
2023-02-27T13:47:50.071Z,4.90
2023-02-27T13:52:14.047Z,4.80
2023-02-27T13:56:38.199Z,4.70
2023-02-27T14:01:03.451Z,4.50
2023-02-27T14:05:32.168Z,4.40
2023-02-27T14:10:04.109Z,4.40
2023-02-27T14:14:52.285Z,4.40
2023-02-27T14:19:43.522Z,4.40
2023-02-27T14:24:14.394Z,4.40
2023-02-27T14:28:48.984Z,4.30
2023-02-27T14:33:33.313Z,4.10
2023-02-27T14:38:09.304Z,3.80
2023-02-27T14:42:47.997Z,3.40
2023-02-27T14:47:18.923Z,3.10
2023-02-27T14:51:43.288Z,3.00
2023-02-27T14:56:07.589Z,2.90
2023-02-27T15:00:38.978Z,2.90
2023-02-27T15:05:16.782Z,3.00
2023-02-27T15:09:43.443Z,3.00
2023-02-27T15:14:07.874Z,3.20
2023-02-27T15:18:33.055Z,3.20
2023-02-27T15:22:57.945Z,3.30
2023-02-27T15:27:24.692Z,3.30
2023-02-27T15:31:48.914Z,3.30
2023-02-27T15:36:22.674Z,3.40
2023-02-27T15:40:46.700Z,3.30
2023-02-27T15:45:20.801Z,3.40
2023-02-27T15:49:45.370Z,3.40
2023-02-27T15:54:11.756Z,3.40
2023-02-27T15:58:38.727Z,3.20
2023-02-27T16:03:03.050Z,3.10
2023-02-27T16:07:29.564Z,3.00
2023-02-27T16:12:13.920Z,2.90
2023-02-27T16:16:39.387Z,2.80
2023-02-27T16:21:15.326Z,2.70
2023-02-27T16:25:39.218Z,2.60
2023-02-27T16:30:12.189Z,2.60
2023-02-27T16:34:45.512Z,2.50
2023-02-27T16:39:13.342Z,2.50
2023-02-27T16:43:37.067Z,2.40
2023-02-27T16:48:03.003Z,2.40
2023-02-27T16:52:22.666Z,2.30
2023-02-27T16:56:49.034Z,2.30
2023-02-27T17:01:07.948Z,2.30
2023-02-27T17:05:29.479Z,2.30
2023-02-27T17:09:53.672Z,2.20
2023-02-27T17:14:17.698Z,2.20
2023-02-27T17:18:41.731Z,2.10
2023-02-27T17:23:07.200Z,2.10
2023-02-27T17:27:31.210Z,2.10
2023-02-27T17:31:55.376Z,2.00
2023-02-27T17:36:19.801Z,2.00
2023-02-27T17:40:45.335Z,2.00
2023-02-27T17:45:10.600Z,1.90
2023-02-27T17:49:34.815Z,1.80
2023-02-27T17:54:01.428Z,1.80
2023-02-27T17:58:26.868Z,1.70
2023-02-27T18:02:50.839Z,1.60
2023-02-27T18:07:15.211Z,1.50
2023-02-27T18:11:39.189Z,1.50
2023-02-27T18:16:04.921Z,1.40
2023-02-27T18:20:31.235Z,1.40
2023-02-27T18:24:56.173Z,1.30
2023-02-27T18:29:20.297Z,1.30
2023-02-27T18:33:45.830Z,1.20
2023-02-27T18:38:04.718Z,1.10
2023-02-27T18:42:31.386Z,1.10
2023-02-27T18:46:57.097Z,1.00
2023-02-27T18:51:23.054Z,1.00
2023-02-27T18:55:50.024Z,1.00
2023-02-27T19:00:15.920Z,1.00
2023-02-27T19:04:39.962Z,1.00
2023-02-27T19:09:07.115Z,1.00
2023-02-27T19:13:31.166Z,1.00
2023-02-27T19:17:55.818Z,0.90
2023-02-27T19:22:20.254Z,0.80
2023-02-27T19:26:45.559Z,0.70
2023-02-27T19:31:10.703Z,0.60
2023-02-27T19:35:35.160Z,0.50
2023-02-27T19:39:59.312Z,0.50
2023-02-27T19:44:26.526Z,0.40
2023-02-27T19:48:50.587Z,0.40
2023-02-27T19:53:15.024Z,0.40
2023-02-27T19:57:34.786Z,0.30
2023-02-27T20:02:01.317Z,0.30
2023-02-27T20:06:28.229Z,0.20
2023-02-27T20:10:56.440Z,0.30
2023-02-27T20:15:20.726Z,0.30
2023-02-27T20:19:46.297Z,0.30
2023-02-27T20:24:11.428Z,0.30
2023-02-27T20:28:37.641Z,0.40
2023-02-27T20:32:55.342Z,0.40
2023-02-27T20:37:15.739Z,0.40
2023-02-27T20:41:40.397Z,0.50
2023-02-27T20:46:05.705Z,0.50
2023-02-27T20:50:29.639Z,0.60
2023-02-27T20:54:55.381Z,0.60
2023-02-27T20:59:21.753Z,0.60
2023-02-27T21:03:46.916Z,0.50
2023-02-27T21:08:10.951Z,0.50
2023-02-27T21:12:36.458Z,0.60
2023-02-27T21:17:00.721Z,0.50
2023-02-27T21:21:26.287Z,0.60
2023-02-27T21:25:51.632Z,0.60
2023-02-27T21:30:18.004Z,0.60
2023-02-27T21:34:42.148Z,0.70
2023-02-27T21:39:08.159Z,0.70
2023-02-27T21:43:32.191Z,0.70
2023-02-27T21:47:58.153Z,0.70
2023-02-27T21:52:22.509Z,0.70
2023-02-27T21:56:48.618Z,0.70
2023-02-27T22:01:16.220Z,0.70
2023-02-27T22:05:43.071Z,0.70
2023-02-27T22:10:07.772Z,0.70
2023-02-27T22:14:31.675Z,0.80
2023-02-27T22:18:55.775Z,0.80
2023-02-27T22:23:21.636Z,0.70
2023-02-27T22:27:46.023Z,0.80
2023-02-27T22:32:09.874Z,0.80
2023-02-27T22:36:35.097Z,0.80
2023-02-27T22:41:06.711Z,0.70
2023-02-27T22:45:30.590Z,0.80
2023-02-27T22:49:54.598Z,0.80
2023-02-27T22:54:19.527Z,0.80
2023-02-27T22:58:47.834Z,0.70
2023-02-27T23:03:11.730Z,0.70
2023-02-27T23:07:35.574Z,0.70
2023-02-27T23:12:02.199Z,0.70
2023-02-27T23:16:28.512Z,0.70
2023-02-27T23:20:52.714Z,0.70
2023-02-27T23:25:16.646Z,0.70
2023-02-27T23:29:40.787Z,0.70
2023-02-27T23:34:06.986Z,0.70
2023-02-27T23:38:31.763Z,0.70
2023-02-27T23:43:16.252Z,0.70
2023-02-27T23:47:43.270Z,0.70
2023-02-27T23:52:08.770Z,0.70
2023-02-27T23:56:32.754Z,0.80
